createdAt,value
2022-11-13T00:00:48.642Z,55.30
2022-11-13T00:03:50.206Z,54.70
2022-11-13T00:06:54.855Z,57.40
2022-11-13T00:09:59.102Z,54.40
2022-11-13T00:13:00.636Z,58.20
2022-11-13T00:16:05.855Z,62.00
2022-11-13T00:19:07.498Z,61.70
2022-11-13T00:22:08.933Z,64.30
2022-11-13T00:25:10.886Z,63.30
2022-11-13T00:28:13.447Z,62.80
2022-11-13T00:31:15.803Z,62.70
2022-11-13T00:34:45.930Z,60.00
2022-11-13T00:37:38.836Z,61.10
2022-11-13T00:40:40.484Z,57.60
2022-11-13T00:43:42.223Z,58.20
2022-11-13T00:46:43.761Z,69.40
2022-11-13T00:49:45.035Z,64.60
2022-11-13T00:52:46.496Z,58.70
2022-11-13T00:55:48.381Z,58.70
2022-11-13T00:58:49.840Z,62.60
2022-11-13T01:01:51.369Z,59.20
2022-11-13T01:04:52.881Z,60.20
2022-11-13T01:07:54.644Z,58.20
2022-11-13T01:10:56.272Z,59.70
2022-11-13T01:13:58.010Z,55.30
2022-11-13T01:16:59.773Z,58.90
2022-11-13T01:20:01.621Z,57.40
2022-11-13T01:23:03.839Z,56.10
2022-11-13T01:26:12.754Z,53.80
2022-11-13T01:29:14.267Z,54.20
2022-11-13T01:32:15.659Z,54.80
2022-11-13T01:35:17.267Z,53.30
2022-11-13T01:38:18.839Z,53.30
2022-11-13T01:41:32.359Z,53.30
2022-11-13T01:44:56.993Z,55.00
2022-11-13T01:47:59.563Z,59.30
2022-11-13T01:51:01.294Z,64.20
2022-11-13T01:54:07.370Z,59.90
2022-11-13T01:57:09.830Z,52.60
2022-11-13T02:00:12.763Z,53.60
2022-11-13T02:03:14.553Z,52.20
2022-11-13T02:06:16.808Z,49.60
2022-11-13T02:09:22.648Z,51.50
2022-11-13T02:12:36.058Z,49.10
2022-11-13T02:15:38.012Z,48.10
2022-11-13T02:18:41.348Z,48.10
2022-11-13T02:22:08.921Z,47.00
2022-11-13T02:25:13.018Z,47.50
2022-11-13T02:28:14.762Z,46.80
2022-11-13T02:31:16.249Z,49.10
2022-11-13T02:34:17.767Z,47.20
2022-11-13T02:37:19.223Z,44.90
2022-11-13T02:40:21.023Z,45.20
2022-11-13T02:43:22.668Z,46.90
2022-11-13T02:46:24.254Z,44.70
2022-11-13T02:49:25.748Z,46.70
2022-11-13T02:52:27.633Z,45.90
2022-11-13T02:55:29.177Z,46.40
2022-11-13T02:58:31.637Z,44.70
2022-11-13T03:01:33.574Z,47.50
2022-11-13T03:05:05.410Z,48.60
2022-11-13T03:07:57.221Z,48.50
2022-11-13T03:10:59.240Z,49.30
2022-11-13T03:14:00.794Z,47.50
2022-11-13T03:17:03.557Z,44.20
2022-11-13T03:20:05.710Z,44.00
2022-11-13T03:23:07.060Z,44.20
2022-11-13T03:26:14.322Z,46.00
2022-11-13T03:29:16.988Z,42.10
2022-11-13T03:32:19.619Z,42.30
2022-11-13T03:35:23.561Z,40.50
2022-11-13T03:38:25.527Z,40.00
2022-11-13T03:41:27.342Z,41.40
2022-11-13T03:44:28.929Z,40.80
2022-11-13T03:47:31.034Z,38.20
2022-11-13T03:50:32.983Z,40.20
2022-11-13T03:53:34.604Z,38.70
2022-11-13T03:56:36.317Z,39.00
2022-11-13T03:59:37.866Z,36.40
2022-11-13T04:02:39.761Z,37.50
2022-11-13T04:05:43.138Z,39.30
2022-11-13T04:08:44.677Z,35.20
2022-11-13T04:11:46.161Z,38.50
2022-11-13T04:14:47.655Z,36.50
2022-11-13T04:17:50.396Z,35.60
2022-11-13T04:20:52.269Z,36.30
2022-11-13T04:23:53.886Z,33.70
2022-11-13T04:26:55.559Z,36.40
2022-11-13T04:29:57.504Z,36.50
2022-11-13T04:32:58.633Z,36.10
2022-11-13T04:36:00.141Z,36.20
2022-11-13T04:39:02.022Z,38.30
2022-11-13T04:42:22.047Z,34.20
2022-11-13T04:45:27.796Z,33.50
2022-11-13T04:48:29.679Z,32.00
2022-11-13T04:51:31.921Z,32.10
2022-11-13T04:54:33.354Z,31.90
2022-11-13T04:57:34.874Z,30.90
2022-11-13T05:00:36.333Z,32.10
2022-11-13T05:03:37.820Z,31.80
2022-11-13T05:06:39.464Z,30.40
2022-11-13T05:09:40.850Z,30.60
2022-11-13T05:12:42.189Z,30.50
2022-11-13T05:15:43.827Z,29.30
2022-11-13T05:18:45.247Z,31.00
2022-11-13T05:21:46.872Z,30.60
2022-11-13T05:24:48.483Z,29.70
2022-11-13T05:27:49.881Z,31.00
2022-11-13T05:30:51.181Z,31.80
2022-11-13T05:33:53.101Z,32.00
2022-11-13T05:36:54.654Z,35.10
2022-11-13T05:39:56.380Z,37.00
2022-11-13T05:42:57.885Z,39.10
2022-11-13T05:46:07.100Z,37.80
2022-11-13T05:49:10.351Z,37.90
2022-11-13T05:52:12.036Z,39.30
2022-11-13T05:55:13.765Z,38.70
2022-11-13T05:58:15.347Z,40.70
2022-11-13T06:01:28.824Z,41.00
2022-11-13T06:04:30.784Z,40.40
2022-11-13T06:07:32.303Z,38.20
2022-11-13T06:10:33.847Z,39.20
2022-11-13T06:13:36.226Z,35.70
2022-11-13T06:16:38.768Z,35.00
2022-11-13T06:19:40.415Z,35.90
2022-11-13T06:22:41.690Z,34.40
2022-11-13T06:25:43.227Z,32.60
2022-11-13T06:28:45.335Z,32.00
2022-11-13T06:31:46.860Z,29.50
2022-11-13T06:34:48.439Z,29.60
2022-11-13T06:37:49.853Z,26.50
2022-11-13T06:40:51.556Z,28.80
2022-11-13T06:43:52.879Z,31.00
2022-11-13T06:46:54.792Z,30.90
2022-11-13T06:49:56.492Z,31.40
2022-11-13T06:52:58.061Z,29.20
2022-11-13T06:56:00.982Z,29.80
2022-11-13T06:59:06.283Z,27.90
2022-11-13T07:02:11.817Z,28.50
2022-11-13T07:05:13.369Z,28.00
2022-11-13T07:08:16.609Z,25.40
2022-11-13T07:11:23.366Z,27.00
2022-11-13T07:14:24.714Z,26.20
2022-11-13T07:17:26.328Z,24.80
2022-11-13T07:20:28.294Z,28.10
2022-11-13T07:23:29.732Z,26.90
2022-11-13T07:26:31.168Z,26.50
2022-11-13T07:29:32.912Z,26.70
2022-11-13T07:32:34.513Z,26.00
2022-11-13T07:35:35.841Z,26.10
2022-11-13T07:38:37.973Z,26.20
2022-11-13T07:41:42.899Z,23.40
2022-11-13T07:44:59.641Z,24.20
2022-11-13T07:48:02.720Z,24.70
2022-11-13T07:54:06.025Z,20.90
2022-11-13T07:57:07.521Z,19.40
2022-11-13T08:00:09.490Z,20.80
2022-11-13T08:03:16.145Z,22.10
2022-11-13T08:06:17.893Z,20.80
2022-11-13T08:09:19.326Z,19.60
2022-11-13T08:12:21.176Z,19.50
2022-11-13T08:15:22.710Z,18.40
2022-11-13T08:18:24.114Z,19.10
2022-11-13T08:21:25.750Z,20.00
2022-11-13T08:24:27.743Z,19.00
2022-11-13T08:27:29.240Z,18.40
2022-11-13T08:30:31.072Z,19.40
2022-11-13T08:33:32.874Z,17.60
2022-11-13T08:36:34.579Z,14.20
2022-11-13T08:39:36.138Z,15.10
2022-11-13T08:42:37.695Z,12.10
2022-11-13T08:45:39.163Z,11.70
2022-11-13T08:48:40.531Z,10.40
2022-11-13T08:51:41.986Z,10.50
2022-11-13T08:54:43.897Z,9.80
2022-11-13T08:57:45.292Z,11.30
2022-11-13T09:00:47.023Z,10.90
2022-11-13T09:03:49.923Z,11.90
2022-11-13T09:06:52.650Z,11.80
2022-11-13T09:09:54.410Z,11.40
2022-11-13T09:13:06.291Z,12.50
2022-11-13T09:16:08.549Z,11.90
2022-11-13T09:19:10.440Z,12.30
2022-11-13T09:22:12.026Z,11.40
2022-11-13T09:25:13.441Z,12.70
2022-11-13T09:28:14.790Z,12.10
2022-11-13T09:31:16.469Z,12.20
2022-11-13T09:34:18.003Z,11.50
2022-11-13T09:37:19.836Z,10.30
2022-11-13T09:40:30.082Z,10.00
2022-11-13T09:43:49.527Z,9.80
2022-11-13T09:46:59.349Z,10.40
2022-11-13T09:50:11.402Z,9.80
2022-11-13T09:53:14.518Z,10.60
2022-11-13T09:56:28.540Z,11.60
2022-11-13T09:59:38.899Z,10.50
2022-11-13T10:02:48.522Z,9.40
2022-11-13T10:06:03.746Z,9.60
2022-11-13T10:09:30.357Z,8.20
2022-11-13T10:12:33.912Z,8.50
2022-11-13T10:15:37.120Z,10.70
2022-11-13T10:18:39.581Z,9.70
2022-11-13T10:21:54.867Z,8.50
2022-11-13T10:25:24.892Z,8.20
2022-11-13T10:28:49.395Z,7.90
2022-11-13T10:31:51.780Z,7.30
2022-11-13T10:35:12.225Z,7.80
2022-11-13T10:38:32.280Z,8.30
2022-11-13T10:41:45.047Z,9.10
2022-11-13T10:44:58.733Z,10.30
2022-11-13T10:48:05.075Z,9.40
2022-11-13T10:51:22.432Z,11.60
2022-11-13T10:54:32.878Z,11.50
2022-11-13T10:57:37.410Z,10.90
2022-11-13T11:00:41.461Z,10.10
2022-11-13T11:03:50.525Z,12.10
2022-11-13T11:10:29.316Z,11.50
2022-11-13T11:13:30.842Z,11.70
2022-11-13T11:16:32.859Z,10.40
2022-11-13T11:19:38.752Z,10.90
2022-11-13T11:22:41.787Z,10.70
2022-11-13T11:25:57.368Z,9.70
2022-11-13T11:29:21.904Z,10.80
2022-11-13T11:32:31.839Z,12.10
2022-11-13T11:35:43.662Z,12.10
2022-11-13T11:38:54.062Z,11.70
2022-11-13T11:42:04.098Z,12.80
2022-11-13T11:45:25.677Z,13.80
2022-11-13T11:48:31.272Z,13.10
2022-11-13T11:51:59.526Z,13.10
2022-11-13T11:55:25.839Z,12.60
2022-11-13T11:58:34.000Z,11.50
2022-11-13T12:01:57.378Z,11.70
2022-11-13T12:05:22.596Z,11.90
2022-11-13T12:08:36.430Z,13.50
2022-11-13T12:11:53.540Z,16.50
2022-11-13T12:15:01.192Z,14.60
2022-11-13T12:18:03.229Z,15.30
2022-11-13T12:21:19.980Z,17.50
2022-11-13T12:24:59.829Z,15.70
2022-11-13T12:28:10.603Z,21.30
2022-11-13T12:31:18.194Z,22.70
2022-11-13T12:34:32.922Z,25.20
2022-11-13T12:38:05.881Z,27.70
2022-11-13T12:41:16.845Z,25.40
2022-11-13T12:44:27.683Z,26.80
2022-11-13T12:47:29.499Z,26.50
2022-11-13T12:50:32.963Z,27.20
2022-11-13T12:53:55.300Z,27.80
2022-11-13T12:57:18.434Z,25.90
2022-11-13T13:00:30.740Z,26.70
2022-11-13T13:03:41.770Z,24.00
2022-11-13T13:07:01.491Z,26.40
2022-11-13T13:10:22.828Z,25.10
2022-11-13T13:13:50.504Z,24.80
2022-11-13T13:16:52.214Z,25.40
2022-11-13T13:20:26.088Z,26.50
2022-11-13T13:23:37.432Z,26.10
2022-11-13T13:26:47.163Z,25.40
2022-11-13T13:29:49.418Z,27.60
2022-11-13T13:32:57.185Z,24.50
2022-11-13T13:36:11.294Z,26.80
2022-11-13T13:39:15.714Z,26.40
2022-11-13T13:42:33.024Z,30.70
2022-11-13T13:45:37.781Z,30.30
2022-11-13T13:48:42.376Z,28.70
2022-11-13T13:51:48.899Z,28.60
2022-11-13T13:54:52.189Z,29.00
2022-11-13T13:57:54.744Z,31.40
2022-11-13T14:01:19.238Z,27.90
2022-11-13T14:04:24.120Z,28.90
2022-11-13T14:07:28.416Z,29.70
2022-11-13T14:10:30.169Z,30.90
2022-11-13T14:13:32.698Z,33.50
2022-11-13T14:16:34.686Z,30.80
2022-11-13T14:19:36.738Z,31.10
2022-11-13T14:22:39.191Z,30.50
2022-11-13T14:25:41.759Z,36.40
2022-11-13T14:28:55.900Z,34.70
2022-11-13T14:32:10.006Z,32.60
2022-11-13T14:35:21.064Z,32.70
2022-11-13T14:38:26.393Z,32.70
2022-11-13T14:41:37.138Z,32.60
2022-11-13T14:44:38.786Z,33.40
2022-11-13T14:47:42.188Z,33.20
2022-11-13T14:51:02.716Z,33.70
2022-11-13T14:54:08.884Z,32.10
2022-11-13T14:57:13.489Z,35.80
2022-11-13T15:00:18.291Z,34.00
2022-11-13T15:03:19.557Z,37.30
2022-11-13T15:06:26.158Z,39.10
2022-11-13T15:09:30.969Z,38.70
2022-11-13T15:12:32.545Z,39.50
2022-11-13T15:15:33.842Z,39.60
2022-11-13T15:18:36.960Z,43.80
2022-11-13T15:21:39.416Z,39.30
2022-11-13T15:24:41.172Z,41.50
2022-11-13T15:27:43.595Z,42.70
2022-11-13T15:30:45.456Z,41.70
2022-11-13T15:33:48.084Z,43.30
2022-11-13T15:36:49.997Z,44.70
2022-11-13T15:39:52.974Z,38.10
2022-11-13T15:42:55.431Z,33.40
2022-11-13T15:45:57.468Z,34.20
2022-11-13T15:48:59.307Z,31.10
2022-11-13T15:52:00.984Z,31.80
2022-11-13T15:55:13.118Z,30.90
2022-11-13T15:58:16.441Z,28.00
2022-11-13T16:01:19.479Z,30.50
2022-11-13T16:04:22.289Z,26.30
2022-11-13T16:07:29.315Z,26.70
2022-11-13T16:10:30.819Z,26.00
2022-11-13T16:13:32.396Z,23.50
2022-11-13T16:16:37.523Z,22.50
2022-11-13T16:19:42.470Z,23.50
2022-11-13T16:22:44.668Z,25.10
2022-11-13T16:25:48.055Z,26.30
2022-11-13T16:32:17.417Z,25.10
2022-11-13T16:35:20.742Z,26.10
2022-11-13T16:41:24.114Z,21.90
2022-11-13T16:44:26.065Z,21.10
2022-11-13T16:47:27.750Z,22.60
2022-11-13T16:50:31.906Z,23.40
2022-11-13T16:53:33.276Z,22.40
2022-11-13T16:56:35.039Z,24.20
2022-11-13T16:59:36.516Z,22.00
2022-11-13T17:02:38.881Z,24.70
2022-11-13T17:05:40.198Z,23.60
2022-11-13T17:08:42.063Z,21.70
2022-11-13T17:11:43.455Z,22.60
2022-11-13T17:14:46.556Z,21.20
2022-11-13T17:17:48.729Z,21.50
2022-11-13T17:20:51.100Z,19.70
2022-11-13T17:23:56.928Z,22.70
2022-11-13T17:26:58.682Z,21.20
2022-11-13T17:30:01.039Z,22.70
2022-11-13T17:33:02.609Z,23.60
2022-11-13T17:36:04.923Z,21.80
2022-11-13T17:39:06.422Z,23.30
2022-11-13T17:42:09.137Z,20.80
2022-11-13T17:45:10.769Z,22.90
2022-11-13T17:48:12.138Z,23.20
2022-11-13T17:51:15.503Z,22.60
2022-11-13T17:54:17.450Z,22.80
2022-11-13T17:57:22.826Z,20.70
2022-11-13T18:00:28.597Z,23.90
2022-11-13T18:03:30.710Z,22.30
2022-11-13T18:06:33.005Z,22.70
2022-11-13T18:09:35.466Z,20.70
2022-11-13T18:12:37.165Z,22.40
2022-11-13T18:15:40.696Z,22.20
2022-11-13T18:18:42.475Z,24.50
2022-11-13T18:21:44.017Z,25.10
2022-11-13T18:24:45.803Z,26.40
2022-11-13T18:27:47.375Z,26.50
2022-11-13T18:30:55.088Z,28.00
2022-11-13T18:34:00.313Z,28.60
2022-11-13T18:37:01.907Z,29.00
2022-11-13T18:40:04.676Z,26.90
2022-11-13T18:43:06.047Z,30.60
2022-11-13T18:46:09.610Z,26.80
2022-11-13T18:49:11.514Z,28.00
2022-11-13T18:52:13.224Z,30.20
2022-11-13T18:55:14.726Z,32.30
2022-11-13T18:58:16.393Z,33.10
2022-11-13T19:01:22.817Z,36.00
2022-11-13T19:04:24.861Z,31.30
2022-11-13T19:07:26.139Z,33.80
2022-11-13T19:10:27.932Z,34.10
2022-11-13T19:13:29.590Z,36.70
2022-11-13T19:16:37.179Z,37.20
2022-11-13T19:19:38.711Z,38.50
2022-11-13T19:22:39.794Z,41.50
2022-11-13T19:25:42.425Z,43.70
2022-11-13T19:28:48.653Z,42.60
2022-11-13T19:31:50.542Z,38.90
2022-11-13T19:34:52.191Z,41.50
2022-11-13T19:37:58.176Z,39.80
2022-11-13T19:40:59.657Z,40.80
2022-11-13T19:44:01.290Z,41.20
2022-11-13T19:47:02.692Z,40.70
2022-11-13T19:50:04.747Z,40.50
2022-11-13T19:53:06.597Z,41.70
2022-11-13T19:56:08.593Z,40.90
2022-11-13T19:59:11.574Z,39.60
2022-11-13T20:05:16.226Z,40.70
2022-11-13T20:08:18.894Z,41.50
2022-11-13T20:11:20.735Z,42.30
2022-11-13T20:14:22.583Z,40.70
2022-11-13T20:17:24.201Z,42.20
2022-11-13T20:20:25.846Z,40.20
2022-11-13T20:23:27.612Z,41.10
2022-11-13T20:26:29.952Z,41.20
2022-11-13T20:29:34.579Z,41.30
2022-11-13T20:32:38.049Z,39.90
2022-11-13T20:35:40.933Z,39.50
2022-11-13T20:38:47.180Z,38.40
2022-11-13T20:41:48.821Z,39.00
2022-11-13T20:44:50.463Z,38.90
2022-11-13T20:47:51.900Z,39.70
2022-11-13T20:50:54.561Z,40.00
2022-11-13T20:53:56.310Z,37.80
2022-11-13T20:56:57.748Z,41.10
2022-11-13T20:59:59.081Z,38.00
2022-11-13T21:03:00.913Z,38.20
2022-11-13T21:06:02.481Z,37.30
2022-11-13T21:09:05.595Z,38.80
2022-11-13T21:12:07.902Z,38.80
2022-11-13T21:15:09.751Z,36.90
2022-11-13T21:18:11.594Z,37.20
2022-11-13T21:21:19.283Z,38.10
2022-11-13T21:24:20.937Z,34.90
2022-11-13T21:27:23.682Z,37.60
2022-11-13T21:30:25.243Z,38.00
2022-11-13T21:33:26.598Z,40.50
2022-11-13T21:36:29.030Z,36.20
2022-11-13T21:39:31.062Z,36.30
2022-11-13T21:42:32.544Z,37.80
2022-11-13T21:45:35.464Z,37.10
2022-11-13T21:48:37.636Z,37.10
2022-11-13T21:51:42.099Z,38.00
2022-11-13T21:54:43.722Z,35.60
2022-11-13T21:57:45.363Z,36.50
2022-11-13T22:00:46.654Z,36.40
2022-11-13T22:03:48.296Z,38.00
2022-11-13T22:06:50.800Z,35.60
2022-11-13T22:09:52.327Z,37.60
2022-11-13T22:12:53.940Z,36.70
2022-11-13T22:15:55.634Z,35.50
2022-11-13T22:18:59.391Z,33.40
2022-11-13T22:22:00.813Z,38.40
2022-11-13T22:25:02.154Z,37.80
2022-11-13T22:28:03.887Z,35.10
2022-11-13T22:31:06.505Z,37.00
2022-11-13T22:34:09.524Z,39.40
2022-11-13T22:37:11.227Z,37.70
2022-11-13T22:40:13.656Z,38.20
2022-11-13T22:43:15.345Z,35.60
2022-11-13T22:46:19.200Z,38.10
2022-11-13T22:49:21.010Z,41.80
2022-11-13T22:52:22.664Z,38.90
2022-11-13T22:55:23.992Z,39.00
2022-11-13T22:58:28.029Z,39.60
2022-11-13T23:01:38.311Z,38.00
2022-11-13T23:04:39.859Z,38.10
2022-11-13T23:07:41.300Z,38.40
2022-11-13T23:10:42.904Z,38.70
2022-11-13T23:13:47.855Z,39.00
2022-11-13T23:16:49.266Z,38.40
2022-11-13T23:19:50.628Z,40.50
2022-11-13T23:22:52.314Z,38.50
2022-11-13T23:25:53.911Z,38.60
2022-11-13T23:28:56.576Z,38.60
2022-11-13T23:31:57.946Z,38.70
2022-11-13T23:35:00.063Z,41.40
2022-11-13T23:38:02.122Z,40.70
2022-11-13T23:41:04.773Z,39.70
2022-11-13T23:44:09.198Z,40.50
2022-11-13T23:47:11.510Z,38.80
2022-11-13T23:50:14.004Z,41.20
2022-11-13T23:53:16.362Z,41.10
2022-11-13T23:56:18.313Z,41.30
2022-11-13T23:59:19.621Z,39.70
